< < Back
Terminal Aerodrome Forecast


Current Version              Previous Versions:   1  2  3  4  5  6  7  8  9  

Terminal Aerodrome Forecast

589
FTUS44 KMRX 290523
TAFTYS
TAF
KTYS 290523Z 2906/3006 04003KT P6SM FEW100 SCT250=

Latest METAR

274
SAUS80 KWBC 290900
MTRTYS
METAR KTYS 290853Z 00000KT 10SM FEW060 SCT250 22/19 A3013 RMK AO2 SLP190
T02170194 56004


USA.gov is the U.S. government's official web portal to all federal, state and local government web resources and services.